Terminal Aerodrome Forecast
Issued by NWS Upton, NY

Home | Current Version | Previous Version | Text Only | Print | Product List | Glossary On
Versions: 1 2 3 4 5 6 7 8 9 10 11 12 13 14 15 16 17 18 19 20 21 22 23 24 25 26 27 28 29 30 31 32 33
000
FTUS41 KOKX 271331 AAA
TAFEWR
TAF AMD
KEWR 271331Z 2714/2818 08004KT P6SM BKN070
     FM271500 22007KT P6SM BKN070
     FM271800 22012G19KT P6SM SCT060 BKN100
     FM272300 27012KT P6SM FEW060 SCT100
     FM280200 29010KT P6SM FEW050
     FM280800 29006KT P6SM FEW050
     FM281400 28011KT P6SM SKC=

USA.gov is the U.S. government's official web portal to all federal, state and local government web resources and services.